sensor_id;sensor_type;location;lat;lon;timestamp;pressure;altitude;pressure_sealevel;temperature;humidity
6349;BME280;3207;42.648;23.406;2023-02-21T00:02:44;100328.16;;;11.49;nan
6349;BME280;3207;42.648;23.406;2023-02-21T00:05:28;100330.16;;;11.46;nan
6349;BME280;3207;42.648;23.406;2023-02-21T00:08:13;100327.41;;;11.47;nan
6349;BME280;3207;42.648;23.406;2023-02-21T00:10:57;100327.03;;;11.41;nan
6349;BME280;3207;42.648;23.406;2023-02-21T00:13:43;100312.28;;;11.27;nan
6349;BME280;3207;42.648;23.406;2023-02-21T00:16:27;100317.53;;;11.27;nan
6349;BME280;3207;42.648;23.406;2023-02-21T00:19:12;100317.03;;;11.22;nan
6349;BME280;3207;42.648;23.406;2023-02-21T00:21:56;100318.06;;;11.32;nan
6349;BME280;3207;42.648;23.406;2023-02-21T00:24:40;100324.06;;;11.21;nan
6349;BME280;3207;42.648;23.406;2023-02-21T00:27:25;100299.88;;;11.18;nan
6349;BME280;3207;42.648;23.406;2023-02-21T00:30:12;100311.56;;;11.25;nan
6349;BME280;3207;42.648;23.406;2023-02-21T00:32:57;100309.47;;;11.30;nan
6349;BME280;3207;42.648;23.406;2023-02-21T00:35:41;100305.91;;;11.31;nan
6349;BME280;3207;42.648;23.406;2023-02-21T00:38:25;100304.25;;;11.30;nan
6349;BME280;3207;42.648;23.406;2023-02-21T00:41:09;100305.84;;;11.20;nan
6349;BME280;3207;42.648;23.406;2023-02-21T00:43:53;100304.25;;;11.17;nan
6349;BME280;3207;42.648;23.406;2023-02-21T00:46:39;100302.56;;;11.29;nan
6349;BME280;3207;42.648;23.406;2023-02-21T00:49:23;100297.53;;;11.26;nan
6349;BME280;3207;42.648;23.406;2023-02-21T00:52:08;100298.78;;;11.33;nan
6349;BME280;3207;42.648;23.406;2023-02-21T00:54:52;100297.81;;;11.34;nan
6349;BME280;3207;42.648;23.406;2023-02-21T00:57:36;100307.03;;;11.40;nan
6349;BME280;3207;42.648;23.406;2023-02-21T01:00:23;100304.91;;;11.45;nan
6349;BME280;3207;42.648;23.406;2023-02-21T01:03:09;100301.97;;;11.49;nan
6349;BME280;3207;42.648;23.406;2023-02-21T01:05:53;100296.00;;;11.47;nan
6349;BME280;3207;42.648;23.406;2023-02-21T01:08:40;100292.78;;;11.44;nan
6349;BME280;3207;42.648;23.406;2023-02-21T01:11:24;100295.63;;;11.41;nan
6349;BME280;3207;42.648;23.406;2023-02-21T01:14:09;100299.28;;;11.38;nan
6349;BME280;3207;42.648;23.406;2023-02-21T01:16:54;100291.25;;;11.28;nan
6349;BME280;3207;42.648;23.406;2023-02-21T01:19:39;100288.63;;;11.28;nan
6349;BME280;3207;42.648;23.406;2023-02-21T01:22:23;100290.31;;;11.29;nan
6349;BME280;3207;42.648;23.406;2023-02-21T01:25:08;100293.88;;;11.28;nan
6349;BME280;3207;42.648;23.406;2023-02-21T01:27:53;100294.81;;;11.27;nan
6349;BME280;3207;42.648;23.406;2023-02-21T01:30:37;100282.47;;;11.29;nan
6349;BME280;3207;42.648;23.406;2023-02-21T01:33:21;100285.09;;;11.17;nan
6349;BME280;3207;42.648;23.406;2023-02-21T01:36:08;100278.66;;;11.10;nan
6349;BME280;3207;42.648;23.406;2023-02-21T01:38:52;100278.34;;;11.02;nan
6349;BME280;3207;42.648;23.406;2023-02-21T01:41:37;100282.50;;;11.04;nan
6349;BME280;3207;42.648;23.406;2023-02-21T01:44:32;100275.50;;;11.05;nan
6349;BME280;3207;42.648;23.406;2023-02-21T01:47:17;100263.88;;;11.09;nan
6349;BME280;3207;42.648;23.406;2023-02-21T01:50:05;100267.72;;;11.16;nan
6349;BME280;3207;42.648;23.406;2023-02-21T01:52:51;100269.09;;;11.21;nan
6349;BME280;3207;42.648;23.406;2023-02-21T01:55:38;100259.69;;;11.19;nan
6349;BME280;3207;42.648;23.406;2023-02-21T01:58:24;100265.94;;;11.29;nan
6349;BME280;3207;42.648;23.406;2023-02-21T02:01:11;100267.81;;;11.27;nan
6349;BME280;3207;42.648;23.406;2023-02-21T02:04:00;100266.13;;;11.26;nan
6349;BME280;3207;42.648;23.406;2023-02-21T02:06:44;100266.47;;;11.21;nan
6349;BME280;3207;42.648;23.406;2023-02-21T02:09:30;100257.88;;;11.32;nan
6349;BME280;3207;42.648;23.406;2023-02-21T02:12:25;100258.84;;;11.18;nan
6349;BME280;3207;42.648;23.406;2023-02-21T02:15:18;100257.16;;;11.17;nan
6349;BME280;3207;42.648;23.406;2023-02-21T02:17:56;100253.06;;;11.26;nan
6349;BME280;3207;42.648;23.406;2023-02-21T02:27:17;100246.22;;;11.12;nan
6349;BME280;3207;42.648;23.406;2023-02-21T02:30:16;100248.84;;;10.99;nan
6349;BME280;3207;42.648;23.406;2023-02-21T02:35:44;100241.53;;;10.92;nan
6349;BME280;3207;42.648;23.406;2023-02-21T02:38:18;100242.69;;;10.88;nan
6349;BME280;3207;42.648;23.406;2023-02-21T02:40:56;100244.88;;;10.81;nan
6349;BME280;3207;42.648;23.406;2023-02-21T02:43:29;100254.31;;;10.84;nan
6349;BME280;3207;42.648;23.406;2023-02-21T02:46:00;100247.41;;;10.83;nan
6349;BME280;3207;42.648;23.406;2023-02-21T02:48:32;100244.88;;;10.81;nan
6349;BME280;3207;42.648;23.406;2023-02-21T02:51:02;100242.06;;;10.84;nan
6349;BME280;3207;42.648;23.406;2023-02-21T02:53:32;100241.34;;;10.82;nan
6349;BME280;3207;42.648;23.406;2023-02-21T02:56:01;100221.25;;;10.70;nan
6349;BME280;3207;42.648;23.406;2023-02-21T02:58:32;100229.44;;;10.78;nan
6349;BME280;3207;42.648;23.406;2023-02-21T03:01:16;100227.03;;;10.75;nan
6349;BME280;3207;42.648;23.406;2023-02-21T03:03:57;100233.84;;;10.65;nan
6349;BME280;3207;42.648;23.406;2023-02-21T03:06:33;100231.44;;;10.62;nan
6349;BME280;3207;42.648;23.406;2023-02-21T03:09:09;100228.16;;;10.71;nan
6349;BME280;3207;42.648;23.406;2023-02-21T03:11:45;100226.28;;;10.73;nan
6349;BME280;3207;42.648;23.406;2023-02-21T03:14:15;100234.13;;;10.73;nan
6349;BME280;3207;42.648;23.406;2023-02-21T03:16:47;100224.84;;;10.69;nan
6349;BME280;3207;42.648;23.406;2023-02-21T03:19:17;100226.28;;;10.73;nan
6349;BME280;3207;42.648;23.406;2023-02-21T03:21:50;100219.06;;;10.77;nan
6349;BME280;3207;42.648;23.406;2023-02-21T03:24:18;100227.22;;;10.72;nan
6349;BME280;3207;42.648;23.406;2023-02-21T03:26:50;100225.25;;;10.76;nan
6349;BME280;3207;42.648;23.406;2023-02-21T03:29:18;100220.13;;;10.74;nan
6349;BME280;3207;42.648;23.406;2023-02-21T03:31:51;100225.56;;;10.71;nan
6349;BME280;3207;42.648;23.406;2023-02-21T03:34:20;100219.81;;;10.66;nan
6349;BME280;3207;42.648;23.406;2023-02-21T03:36:49;100220.03;;;10.63;nan
6349;BME280;3207;42.648;23.406;2023-02-21T03:39:16;100219.81;;;10.66;nan
6349;BME280;3207;42.648;23.406;2023-02-21T03:41:43;100221.50;;;10.67;nan
6349;BME280;3207;42.648;23.406;2023-02-21T03:44:09;100166.13;;;10.37;nan
6349;BME280;3207;42.648;23.406;2023-02-21T03:46:36;100213.38;;;10.59;nan
6349;BME280;3207;42.648;23.406;2023-02-21T03:49:03;100217.31;;;10.52;nan
6349;BME280;3207;42.648;23.406;2023-02-21T03:51:30;100206.47;;;10.45;nan
6349;BME280;3207;42.648;23.406;2023-02-21T03:53:58;100214.72;;;10.52;nan
6349;BME280;3207;42.648;23.406;2023-02-21T03:56:25;100202.28;;;10.43;nan
6349;BME280;3207;42.648;23.406;2023-02-21T03:58:52;100211.91;;;10.42;nan
6349;BME280;3207;42.648;23.406;2023-02-21T04:01:18;100198.94;;;10.41;nan
6349;BME280;3207;42.648;23.406;2023-02-21T04:03:45;100194.13;;;10.47;nan
6349;BME280;3207;42.648;23.406;2023-02-21T04:06:12;100194.53;;;10.54;nan
6349;BME280;3207;42.648;23.406;2023-02-21T04:08:39;100196.59;;;10.61;nan
6349;BME280;3207;42.648;23.406;2023-02-21T04:11:07;100194.53;;;10.54;nan
6349;BME280;3207;42.648;23.406;2023-02-21T04:13:34;100200.06;;;10.62;nan
6349;BME280;3207;42.648;23.406;2023-02-21T04:16:00;100202.25;;;10.68;nan
6349;BME280;3207;42.648;23.406;2023-02-21T04:18:27;100209.25;;;10.80;nan
6349;BME280;3207;42.648;23.406;2023-02-21T04:20:54;100203.28;;;10.78;nan
6349;BME280;3207;42.648;23.406;2023-02-21T04:23:21;100209.66;;;10.74;nan
6349;BME280;3207;42.648;23.406;2023-02-21T04:25:48;100204.03;;;10.68;nan
6349;BME280;3207;42.648;23.406;2023-02-21T04:28:16;100211.34;;;10.75;nan
6349;BME280;3207;42.648;23.406;2023-02-21T04:30:43;100204.44;;;10.74;nan
6349;BME280;3207;42.648;23.406;2023-02-21T04:33:09;100202.84;;;10.72;nan
6349;BME280;3207;42.648;23.406;2023-02-21T04:35:36;100200.66;;;10.78;nan
6349;BME280;3207;42.648;23.406;2023-02-21T04:38:03;100183.63;;;10.73;nan
6349;BME280;3207;42.648;23.406;2023-02-21T04:40:30;100195.41;;;10.91;nan
6349;BME280;3207;42.648;23.406;2023-02-21T04:42:57;100200.13;;;10.86;nan
6349;BME280;3207;42.648;23.406;2023-02-21T04:45:25;100200.75;;;10.89;nan
6349;BME280;3207;42.648;23.406;2023-02-21T04:47:52;100196.28;;;10.79;nan
6349;BME280;3207;42.648;23.406;2023-02-21T04:50:19;100195.72;;;10.86;nan
6349;BME280;3207;42.648;23.406;2023-02-21T04:52:46;100194.97;;;10.97;nan
6349;BME280;3207;42.648;23.406;2023-02-21T04:55:14;100169.56;;;10.86;nan
6349;BME280;3207;42.648;23.406;2023-02-21T04:57:41;100184.59;;;10.95;nan
6349;BME280;3207;42.648;23.406;2023-02-21T05:00:10;100182.09;;;10.94;nan
6349;BME280;3207;42.648;23.406;2023-02-21T05:02:41;100189.59;;;11.11;nan
6349;BME280;3207;42.648;23.406;2023-02-21T05:05:08;100190.19;;;11.15;nan
6349;BME280;3207;42.648;23.406;2023-02-21T05:07:35;100170.13;;;11.02;nan
6349;BME280;3207;42.648;23.406;2023-02-21T05:10:02;100185.47;;;11.20;nan
6349;BME280;3207;42.648;23.406;2023-02-21T05:12:30;100182.13;;;11.18;nan
6349;BME280;3207;42.648;23.406;2023-02-21T05:14:56;100172.19;;;11.23;nan
6349;BME280;3207;42.648;23.406;2023-02-21T05:17:23;100185.75;;;11.28;nan
6349;BME280;3207;42.648;23.406;2023-02-21T05:19:53;100188.25;;;11.29;nan
6349;BME280;3207;42.648;23.406;2023-02-21T05:22:20;100185.53;;;11.31;nan
6349;BME280;3207;42.648;23.406;2023-02-21T05:24:47;100183.19;;;11.39;nan
6349;BME280;3207;42.648;23.406;2023-02-21T05:27:15;100133.81;;;10.87;nan
6349;BME280;3207;42.648;23.406;2023-02-21T05:29:45;100185.41;;;11.09;nan
6349;BME280;3207;42.648;23.406;2023-02-21T05:32:12;100176.19;;;11.03;nan
6349;BME280;3207;42.648;23.406;2023-02-21T05:34:38;100166.84;;;10.88;nan
6349;BME280;3207;42.648;23.406;2023-02-21T05:37:10;100172.25;;;10.97;nan
6349;BME280;3207;42.648;23.406;2023-02-21T05:39:37;100171.59;;;11.07;nan
6349;BME280;3207;42.648;23.406;2023-02-21T05:42:04;100173.59;;;11.03;nan
6349;BME280;3207;42.648;23.406;2023-02-21T05:44:32;100179.66;;;11.04;nan
6349;BME280;3207;42.648;23.406;2023-02-21T05:46:58;100178.34;;;10.98;nan
6349;BME280;3207;42.648;23.406;2023-02-21T05:49:26;100182.75;;;10.85;nan
6349;BME280;3207;42.648;23.406;2023-02-21T05:51:54;100182.28;;;10.67;nan
6349;BME280;3207;42.648;23.406;2023-02-21T05:54:22;100171.94;;;10.53;nan
6349;BME280;3207;42.648;23.406;2023-02-21T05:56:50;100181.16;;;10.46;nan
6349;BME280;3207;42.648;23.406;2023-02-21T05:59:18;100181.47;;;10.54;nan
6349;BME280;3207;42.648;23.406;2023-02-21T06:01:45;100181.47;;;10.54;nan
6349;BME280;3207;42.648;23.406;2023-02-21T06:04:12;100185.56;;;10.58;nan
6349;BME280;3207;42.648;23.406;2023-02-21T06:06:39;100184.59;;;10.59;nan
6349;BME280;3207;42.648;23.406;2023-02-21T06:09:06;100193.69;;;10.66;nan
6349;BME280;3207;42.648;23.406;2023-02-21T06:11:36;100196.19;;;10.68;nan
6349;BME280;3207;42.648;23.406;2023-02-21T06:14:07;100197.44;;;10.75;nan
6349;BME280;3207;42.648;23.406;2023-02-21T06:16:35;100204.13;;;10.79;nan
6349;BME280;3207;42.648;23.406;2023-02-21T06:19:03;100200.44;;;10.81;nan
6349;BME280;3207;42.648;23.406;2023-02-21T06:21:31;100207.88;;;10.87;nan
6349;BME280;3207;42.648;23.406;2023-02-21T06:23:58;100210.13;;;10.92;nan
6349;BME280;3207;42.648;23.406;2023-02-21T06:26:25;100206.47;;;10.94;nan
6349;BME280;3207;42.648;23.406;2023-02-21T06:28:53;100206.47;;;10.94;nan
6349;BME280;3207;42.648;23.406;2023-02-21T06:31:21;100208.81;;;10.86;nan
6349;BME280;3207;42.648;23.406;2023-02-21T06:33:48;100212.66;;;10.93;nan
6349;BME280;3207;42.648;23.406;2023-02-21T06:36:18;100214.13;;;10.97;nan
6349;BME280;3207;42.648;23.406;2023-02-21T06:38:46;100205.31;;;10.98;nan
6349;BME280;3207;42.648;23.406;2023-02-21T06:41:15;100200.94;;;10.99;nan
6349;BME280;3207;42.648;23.406;2023-02-21T06:43:42;100226.28;;;11.22;nan
6349;BME280;3207;42.648;23.406;2023-02-21T06:46:14;100230.41;;;11.37;nan
6349;BME280;3207;42.648;23.406;2023-02-21T06:48:41;100221.19;;;12.15;nan
6349;BME280;3207;42.648;23.406;2023-02-21T06:51:08;100220.06;;;13.72;nan
6349;BME280;3207;42.648;23.406;2023-02-21T06:53:35;100232.81;;;14.90;nan
6349;BME280;3207;42.648;23.406;2023-02-21T06:56:03;100228.84;;;15.55;nan
6349;BME280;3207;42.648;23.406;2023-02-21T06:58:30;100235.78;;;15.56;nan
6349;BME280;3207;42.648;23.406;2023-02-21T07:00:57;100233.69;;;16.54;nan
6349;BME280;3207;42.648;23.406;2023-02-21T07:03:25;100228.91;;;18.28;nan
6349;BME280;3207;42.648;23.406;2023-02-21T07:05:52;100242.09;;;19.64;nan
6349;BME280;3207;42.648;23.406;2023-02-21T07:08:19;100232.16;;;19.74;nan
6349;BME280;3207;42.648;23.406;2023-02-21T07:10:46;100235.81;;;19.98;nan
6349;BME280;3207;42.648;23.406;2023-02-21T07:13:13;100232.00;;;19.60;nan
6349;BME280;3207;42.648;23.406;2023-02-21T07:15:40;100235.63;;;19.09;nan
6349;BME280;3207;42.648;23.406;2023-02-21T07:18:06;100231.81;;;18.17;nan
6349;BME280;3207;42.648;23.406;2023-02-21T07:20:36;100230.09;;;18.34;nan
6349;BME280;3207;42.648;23.406;2023-02-21T07:23:02;100221.47;;;19.42;nan
6349;BME280;3207;42.648;23.406;2023-02-21T07:25:29;100231.94;;;20.65;nan
6349;BME280;3207;42.648;23.406;2023-02-21T07:27:56;100237.34;;;21.73;nan
6349;BME280;3207;42.648;23.406;2023-02-21T07:30:23;100237.94;;;22.73;nan
6349;BME280;3207;42.648;23.406;2023-02-21T07:32:49;100230.03;;;23.87;nan
6349;BME280;3207;42.648;23.406;2023-02-21T07:35:17;100239.09;;;25.11;nan
6349;BME280;3207;42.648;23.406;2023-02-21T07:37:45;100243.44;;;26.39;nan
6349;BME280;3207;42.648;23.406;2023-02-21T07:40:12;100245.41;;;26.83;nan
6349;BME280;3207;42.648;23.406;2023-02-21T07:42:40;100251.03;;;27.71;nan
6349;BME280;3207;42.648;23.406;2023-02-21T07:45:08;100253.75;;;28.20;nan
6349;BME280;3207;42.648;23.406;2023-02-21T07:47:35;100252.53;;;29.02;nan
6349;BME280;3207;42.648;23.406;2023-02-21T07:50:03;100245.59;;;28.52;nan
6349;BME280;3207;42.648;23.406;2023-02-21T07:52:30;100251.81;;;28.52;nan
6349;BME280;3207;42.648;23.406;2023-02-21T07:54:58;100246.06;;;29.81;nan
6349;BME280;3207;42.648;23.406;2023-02-21T07:57:25;100245.69;;;30.54;nan
6349;BME280;3207;42.648;23.406;2023-02-21T07:59:51;100247.03;;;30.92;nan
6349;BME280;3207;42.648;23.406;2023-02-21T08:02:18;100243.19;;;30.65;nan
6349;BME280;3207;42.648;23.406;2023-02-21T08:04:48;100248.03;;;31.71;nan
6349;BME280;3207;42.648;23.406;2023-02-21T08:07:15;100235.13;;;31.61;nan
6349;BME280;3207;42.648;23.406;2023-02-21T08:09:43;100251.16;;;31.63;nan
6349;BME280;3207;42.648;23.406;2023-02-21T08:12:11;100255.66;;;31.17;nan
6349;BME280;3207;42.648;23.406;2023-02-21T08:14:38;100246.53;;;30.95;nan
6349;BME280;3207;42.648;23.406;2023-02-21T08:17:05;100249.06;;;30.38;nan
6349;BME280;3207;42.648;23.406;2023-02-21T08:19:32;100243.53;;;30.21;nan
6349;BME280;3207;42.648;23.406;2023-02-21T08:21:59;100247.78;;;30.06;nan
6349;BME280;3207;42.648;23.406;2023-02-21T08:24:25;100251.41;;;30.46;nan
6349;BME280;3207;42.648;23.406;2023-02-21T08:26:52;100248.63;;;31.16;nan
6349;BME280;3207;42.648;23.406;2023-02-21T08:29:20;100244.97;;;30.24;nan
6349;BME280;3207;42.648;23.406;2023-02-21T08:31:47;100243.38;;;29.03;nan
6349;BME280;3207;42.648;23.406;2023-02-21T08:34:14;100239.88;;;27.67;nan
6349;BME280;3207;42.648;23.406;2023-02-21T08:36:42;100237.06;;;26.00;nan
6349;BME280;3207;42.648;23.406;2023-02-21T08:39:09;100237.41;;;24.97;nan
6349;BME280;3207;42.648;23.406;2023-02-21T08:41:37;100243.94;;;24.53;nan
6349;BME280;3207;42.648;23.406;2023-02-21T08:44:05;100238.41;;;24.55;nan
6349;BME280;3207;42.648;23.406;2023-02-21T08:46:34;100240.16;;;26.10;nan
6349;BME280;3207;42.648;23.406;2023-02-21T08:49:02;100250.31;;;28.81;nan
6349;BME280;3207;42.648;23.406;2023-02-21T08:51:31;100252.88;;;31.12;nan
6349;BME280;3207;42.648;23.406;2023-02-21T08:53:58;100257.66;;;32.12;nan
6349;BME280;3207;42.648;23.406;2023-02-21T08:56:26;100246.69;;;32.96;nan
6349;BME280;3207;42.648;23.406;2023-02-21T08:58:55;100261.31;;;33.65;nan
6349;BME280;3207;42.648;23.406;2023-02-21T09:01:23;100260.59;;;33.75;nan
6349;BME280;3207;42.648;23.406;2023-02-21T09:03:51;100254.13;;;33.27;nan
6349;BME280;3207;42.648;23.406;2023-02-21T09:06:18;100265.13;;;33.69;nan
6349;BME280;3207;42.648;23.406;2023-02-21T09:08:45;100262.31;;;34.18;nan
6349;BME280;3207;42.648;23.406;2023-02-21T09:11:11;100257.69;;;35.18;nan
6349;BME280;3207;42.648;23.406;2023-02-21T09:13:38;100266.28;;;36.53;nan
6349;BME280;3207;42.648;23.406;2023-02-21T09:16:06;100259.78;;;37.09;nan
6349;BME280;3207;42.648;23.406;2023-02-21T09:18:33;100256.78;;;37.64;nan
6349;BME280;3207;42.648;23.406;2023-02-21T09:21:01;100272.47;;;38.45;nan
6349;BME280;3207;42.648;23.406;2023-02-21T09:23:29;100266.59;;;39.47;nan
6349;BME280;3207;42.648;23.406;2023-02-21T09:25:56;100265.69;;;40.49;nan
6349;BME280;3207;42.648;23.406;2023-02-21T09:28:23;100259.34;;;40.21;nan
6349;BME280;3207;42.648;23.406;2023-02-21T09:30:50;100269.56;;;40.35;nan
6349;BME280;3207;42.648;23.406;2023-02-21T09:33:17;100241.66;;;40.00;nan
6349;BME280;3207;42.648;23.406;2023-02-21T09:35:44;100269.97;;;39.58;nan
6349;BME280;3207;42.648;23.406;2023-02-21T09:38:12;100268.88;;;40.10;nan
6349;BME280;3207;42.648;23.406;2023-02-21T09:40:42;100273.03;;;40.95;nan
6349;BME280;3207;42.648;23.406;2023-02-21T09:43:14;100275.34;;;41.15;nan
6349;BME280;3207;42.648;23.406;2023-02-21T09:45:43;100264.63;;;41.86;nan
6349;BME280;3207;42.648;23.406;2023-02-21T09:48:14;100280.34;;;41.63;nan
6349;BME280;3207;42.648;23.406;2023-02-21T09:50:44;100267.63;;;41.76;nan
6349;BME280;3207;42.648;23.406;2023-02-21T09:53:18;100264.06;;;41.75;nan
6349;BME280;3207;42.648;23.406;2023-02-21T09:55:46;100266.59;;;39.99;nan
6349;BME280;3207;42.648;23.406;2023-02-21T09:58:16;100267.59;;;38.90;nan
6349;BME280;3207;42.648;23.406;2023-02-21T10:00:44;100269.88;;;39.26;nan
6349;BME280;3207;42.648;23.406;2023-02-21T10:03:22;100269.41;;;39.61;nan
6349;BME280;3207;42.648;23.406;2023-02-21T10:05:57;100267.69;;;38.32;nan
6349;BME280;3207;42.648;23.406;2023-02-21T10:08:33;100275.00;;;38.13;nan
6349;BME280;3207;42.648;23.406;2023-02-21T10:11:20;100276.09;;;39.31;nan
6349;BME280;3207;42.648;23.406;2023-02-21T10:13:53;100278.91;;;40.47;nan
6349;BME280;3207;42.648;23.406;2023-02-21T10:16:26;100268.13;;;40.92;nan
6349;BME280;3207;42.648;23.406;2023-02-21T10:19:02;100272.34;;;40.76;nan
6349;BME280;3207;42.648;23.406;2023-02-21T10:21:33;100269.69;;;40.84;nan
6349;BME280;3207;42.648;23.406;2023-02-21T10:24:11;100274.38;;;41.92;nan
6349;BME280;3207;42.648;23.406;2023-02-21T10:26:39;100273.72;;;42.40;nan
6349;BME280;3207;42.648;23.406;2023-02-21T10:29:19;100255.97;;;41.70;nan
6349;BME280;3207;42.648;23.406;2023-02-21T10:31:47;100268.28;;;41.37;nan
6349;BME280;3207;42.648;23.406;2023-02-21T10:34:22;100255.53;;;41.18;nan
6349;BME280;3207;42.648;23.406;2023-02-21T10:36:51;100258.69;;;41.48;nan
6349;BME280;3207;42.648;23.406;2023-02-21T10:39:21;100234.38;;;41.77;nan
6349;BME280;3207;42.648;23.406;2023-02-21T10:41:51;100247.56;;;41.30;nan
6349;BME280;3207;42.648;23.406;2023-02-21T10:44:21;100244.47;;;41.90;nan
6349;BME280;3207;42.648;23.406;2023-02-21T10:46:57;100249.91;;;42.74;nan
6349;BME280;3207;42.648;23.406;2023-02-21T10:49:29;100246.44;;;42.21;nan
6349;BME280;3207;42.648;23.406;2023-02-21T10:52:08;100240.13;;;43.25;nan
6349;BME280;3207;42.648;23.406;2023-02-21T10:54:37;100233.66;;;43.47;nan
6349;BME280;3207;42.648;23.406;2023-02-21T10:57:06;100231.06;;;43.42;nan
6349;BME280;3207;42.648;23.406;2023-02-21T10:59:35;100228.56;;;42.01;nan
6349;BME280;3207;42.648;23.406;2023-02-21T11:02:25;100223.78;;;42.15;nan
6349;BME280;3207;42.648;23.406;2023-02-21T11:04:54;100215.50;;;41.84;nan
6349;BME280;3207;42.648;23.406;2023-02-21T11:07:22;100211.31;;;43.40;nan
6349;BME280;3207;42.648;23.406;2023-02-21T11:09:50;100207.94;;;44.15;nan
6349;BME280;3207;42.648;23.406;2023-02-21T11:12:21;100205.72;;;45.18;nan
6349;BME280;3207;42.648;23.406;2023-02-21T11:15:16;100200.81;;;45.24;nan
6349;BME280;3207;42.648;23.406;2023-02-21T11:17:44;100198.72;;;44.41;nan
6349;BME280;3207;42.648;23.406;2023-02-21T11:20:17;100204.97;;;43.14;nan
6349;BME280;3207;42.648;23.406;2023-02-21T11:22:46;100204.66;;;41.79;nan
6349;BME280;3207;42.648;23.406;2023-02-21T11:25:23;100179.84;;;40.90;nan
6349;BME280;3207;42.648;23.406;2023-02-21T11:28:02;100184.38;;;39.34;nan
6349;BME280;3207;42.648;23.406;2023-02-21T11:30:30;100185.06;;;39.26;nan
6349;BME280;3207;42.648;23.406;2023-02-21T11:32:59;100174.66;;;38.42;nan
6349;BME280;3207;42.648;23.406;2023-02-21T11:35:28;100171.13;;;37.55;nan
6349;BME280;3207;42.648;23.406;2023-02-21T11:37:58;100160.44;;;38.45;nan
6349;BME280;3207;42.648;23.406;2023-02-21T11:40:32;100170.13;;;40.15;nan
6349;BME280;3207;42.648;23.406;2023-02-21T11:43:19;100160.63;;;40.90;nan
6349;BME280;3207;42.648;23.406;2023-02-21T11:46:02;100162.59;;;40.89;nan
6349;BME280;3207;42.648;23.406;2023-02-21T11:48:32;100160.44;;;41.00;nan
6349;BME280;3207;42.648;23.406;2023-02-21T11:51:05;100153.69;;;41.06;nan
6349;BME280;3207;42.648;23.406;2023-02-21T11:53:41;100157.56;;;41.63;nan
6349;BME280;3207;42.648;23.406;2023-02-21T11:56:25;100153.56;;;41.78;nan
6349;BME280;3207;42.648;23.406;2023-02-21T11:58:59;100141.81;;;41.86;nan
6349;BME280;3207;42.648;23.406;2023-02-21T12:01:32;100134.38;;;41.56;nan
6349;BME280;3207;42.648;23.406;2023-02-21T12:04:17;100124.34;;;40.16;nan
6349;BME280;3207;42.648;23.406;2023-02-21T12:06:53;100121.97;;;38.79;nan
6349;BME280;3207;42.648;23.406;2023-02-21T12:09:26;100122.53;;;38.15;nan
6349;BME280;3207;42.648;23.406;2023-02-21T12:12:10;100117.41;;;38.56;nan
6349;BME280;3207;42.648;23.406;2023-02-21T12:14:54;100117.28;;;37.66;nan
6349;BME280;3207;42.648;23.406;2023-02-21T12:17:48;100108.09;;;36.79;nan
6349;BME280;3207;42.648;23.406;2023-02-21T12:20:25;100106.00;;;35.60;nan
6349;BME280;3207;42.648;23.406;2023-02-21T12:23:03;100102.66;;;33.04;nan
6349;BME280;3207;42.648;23.406;2023-02-21T12:25:38;100081.03;;;32.17;nan
6349;BME280;3207;42.648;23.406;2023-02-21T12:28:18;100095.47;;;31.05;nan
6349;BME280;3207;42.648;23.406;2023-02-21T12:31:01;100088.28;;;29.91;nan
6349;BME280;3207;42.648;23.406;2023-02-21T12:33:42;100079.47;;;28.95;nan
6349;BME280;3207;42.648;23.406;2023-02-21T12:36:17;100072.56;;;28.88;nan
6349;BME280;3207;42.648;23.406;2023-02-21T12:38:54;100069.28;;;28.97;nan
6349;BME280;3207;42.648;23.406;2023-02-21T12:41:42;100075.03;;;28.89;nan
6349;BME280;3207;42.648;23.406;2023-02-21T12:44:16;100055.56;;;28.57;nan
6349;BME280;3207;42.648;23.406;2023-02-21T12:46:50;100057.31;;;28.15;nan
6349;BME280;3207;42.648;23.406;2023-02-21T12:49:22;100054.38;;;27.98;nan
6349;BME280;3207;42.648;23.406;2023-02-21T12:51:56;100055.28;;;28.11;nan
6349;BME280;3207;42.648;23.406;2023-02-21T12:54:34;100052.63;;;27.67;nan
6349;BME280;3207;42.648;23.406;2023-02-21T12:57:06;100047.84;;;27.45;nan
6349;BME280;3207;42.648;23.406;2023-02-21T12:59:45;100036.81;;;27.10;nan
6349;BME280;3207;42.648;23.406;2023-02-21T13:02:20;100041.69;;;27.19;nan
6349;BME280;3207;42.648;23.406;2023-02-21T13:04:53;100043.69;;;27.24;nan
6349;BME280;3207;42.648;23.406;2023-02-21T13:07:23;100032.69;;;27.07;nan
6349;BME280;3207;42.648;23.406;2023-02-21T13:09:58;100032.41;;;26.84;nan
6349;BME280;3207;42.648;23.406;2023-02-21T13:12:30;100027.94;;;26.71;nan
6349;BME280;3207;42.648;23.406;2023-02-21T13:15:04;100029.00;;;26.32;nan
6349;BME280;3207;42.648;23.406;2023-02-21T13:17:35;100026.50;;;26.31;nan
6349;BME280;3207;42.648;23.406;2023-02-21T13:20:05;100022.38;;;26.35;nan
6349;BME280;3207;42.648;23.406;2023-02-21T13:26:04;100013.03;;;25.86;nan
6349;BME280;3207;42.648;23.406;2023-02-21T13:28:38;100012.22;;;25.92;nan
6349;BME280;3207;42.648;23.406;2023-02-21T13:31:18;100012.00;;;25.87;nan
6349;BME280;3207;42.648;23.406;2023-02-21T13:33:49;100009.16;;;25.75;nan
6349;BME280;3207;42.648;23.406;2023-02-21T13:36:24;100009.56;;;25.79;nan
6349;BME280;3207;42.648;23.406;2023-02-21T13:39:03;99999.22;;;25.89;nan
6349;BME280;3207;42.648;23.406;2023-02-21T13:41:37;100005.25;;;25.84;nan
6349;BME280;3207;42.648;23.406;2023-02-21T13:44:08;99998.69;;;25.74;nan
6349;BME280;3207;42.648;23.406;2023-02-21T13:47:12;100004.19;;;25.92;nan
6349;BME280;3207;42.648;23.406;2023-02-21T13:49:45;99999.81;;;26.04;nan
6349;BME280;3207;42.648;23.406;2023-02-21T13:52:36;99993.66;;;25.91;nan
6349;BME280;3207;42.648;23.406;2023-02-21T13:55:23;99994.63;;;26.09;nan
6349;BME280;3207;42.648;23.406;2023-02-21T13:58:31;99983.91;;;26.09;nan
6349;BME280;3207;42.648;23.406;2023-02-21T14:01:22;99988.06;;;25.99;nan
6349;BME280;3207;42.648;23.406;2023-02-21T14:07:06;99977.44;;;25.59;nan
6349;BME280;3207;42.648;23.406;2023-02-21T14:09:34;99976.44;;;25.60;nan
6349;BME280;3207;42.648;23.406;2023-02-21T14:12:05;99971.09;;;25.47;nan